AAL2345 KORD-KDCA
Flight info
| Callsign | AAL2345 |
|---|---|
| Flight time | 1h 16m |
| Altitude | 37000 |
| Route | MOBLE ADIME OTENS ANEWA JERRI NUSMM BUCKO FRDMM6 |
| Aircraft | B738/M-SDE2E3FGHIRWXY/LB1 |
Departure
| Time | 2026-05-07 22:10 |
|---|---|
| Airport | Chicago O'Hare International Airport (KORD) |
Arrival
| Time | 2026-05-07 23:27 |
|---|---|
| Airport | Ronald Reagan Washington National Airport (KDCA) |
| Time | Latitude | Longitude | Altitude | Speed | Heading |
|---|---|---|---|---|---|
| 2026-05-07 21:59 | 41.97357 | -87.88897 | 670 ft | 0 kts | 1° |
| 2026-05-07 22:04 | 41.97354 | -87.88897 | 670 ft | 3 kts | 2° |
| 2026-05-07 22:04 | 41.97328 | -87.88901 | 669 ft | 4 kts | 12° |
| 2026-05-07 22:04 | 41.97302 | -87.88911 | 669 ft | 4 kts | 26° |
| 2026-05-07 22:04 | 41.97280 | -87.88931 | 669 ft | 4 kts | 49° |
| 2026-05-07 22:05 | 41.97270 | -87.88959 | 669 ft | 2 kts | 89° |
| 2026-05-07 22:05 | 41.97269 | -87.88961 | 669 ft | 0 kts | 90° |
| 2026-05-07 22:07 | 41.97268 | -87.88958 | 669 ft | 1 kts | 107° |
| 2026-05-07 22:07 | 41.97254 | -87.88948 | 667 ft | 5 kts | 158° |
| 2026-05-07 22:07 | 41.97209 | -87.88912 | 669 ft | 11 kts | 124° |
| 2026-05-07 22:08 | 41.97196 | -87.88786 | 669 ft | 16 kts | 89° |
| 2026-05-07 22:08 | 41.97197 | -87.88614 | 669 ft | 20 kts | 90° |
| 2026-05-07 22:08 | 41.97197 | -87.88408 | 669 ft | 24 kts | 90° |
| 2026-05-07 22:08 | 41.97198 | -87.88169 | 669 ft | 27 kts | 90° |
| 2026-05-07 22:09 | 41.97140 | -87.88034 | 669 ft | 16 kts | 178° |
| 2026-05-07 22:09 | 41.97036 | -87.88032 | 669 ft | 15 kts | 179° |
| 2026-05-07 22:09 | 41.96964 | -87.88010 | 669 ft | 7 kts | 193° |
| 2026-05-07 22:09 | 41.96928 | -87.88054 | 669 ft | 0 kts | 222° |
| 2026-05-07 22:10 | 41.96866 | -87.88129 | 666 ft | 40 kts | 221° |
| 2026-05-07 22:10 | 41.96419 | -87.88656 | 667 ft | 128 kts | 221° |
| 2026-05-07 22:10 | 41.95552 | -87.89656 | 767 ft | 193 kts | 221° |
| 2026-05-07 22:10 | 41.94497 | -87.90848 | 1741 ft | 197 kts | 225° |
| 2026-05-07 22:11 | 41.93438 | -87.92015 | 2719 ft | 202 kts | 224° |
| 2026-05-07 22:11 | 41.92311 | -87.93204 | 3406 ft | 206 kts | 222° |
| 2026-05-07 22:11 | 41.91159 | -87.94349 | 4180 ft | 206 kts | 220° |
| 2026-05-07 22:11 | 41.89986 | -87.95457 | 4925 ft | 207 kts | 223° |
| 2026-05-07 22:12 | 41.89136 | -87.97068 | 5210 ft | 221 kts | 256° |
| 2026-05-07 22:12 | 41.89057 | -87.99120 | 5807 ft | 223 kts | 270° |
| 2026-05-07 22:12 | 41.88537 | -88.01083 | 6414 ft | 234 kts | 232° |
| 2026-05-07 22:12 | 41.87104 | -88.02286 | 6801 ft | 263 kts | 198° |
| 2026-05-07 22:13 | 41.85214 | -88.02121 | 7398 ft | 288 kts | 163° |
| 2026-05-07 22:13 | 41.83578 | -88.00498 | 8251 ft | 302 kts | 129° |
| 2026-05-07 22:13 | 41.82745 | -87.97909 | 9119 ft | 310 kts | 97° |
| 2026-05-07 22:13 | 41.82601 | -87.95010 | 9908 ft | 316 kts | 102° |
| 2026-05-07 22:14 | 41.81886 | -87.92176 | 10474 ft | 330 kts | 107° |
| 2026-05-07 22:14 | 41.81535 | -87.89056 | 10946 ft | 345 kts | 92° |
| 2026-05-07 22:14 | 41.81503 | -87.85811 | 11646 ft | 353 kts | 89° |
| 2026-05-07 22:14 | 41.81537 | -87.82486 | 12448 ft | 358 kts | 88° |
| 2026-05-07 22:15 | 41.81555 | -87.79144 | 13234 ft | 363 kts | 89° |
| 2026-05-07 22:15 | 41.81534 | -87.75716 | 13970 ft | 370 kts | 90° |
| 2026-05-07 22:15 | 41.81475 | -87.72250 | 14681 ft | 375 kts | 91° |
| 2026-05-07 22:15 | 41.81386 | -87.68721 | 15417 ft | 379 kts | 92° |
| 2026-05-07 22:16 | 41.81275 | -87.65174 | 16147 ft | 384 kts | 92° |
| 2026-05-07 22:16 | 41.81149 | -87.61544 | 16878 ft | 388 kts | 92° |
| 2026-05-07 22:16 | 41.81011 | -87.57847 | 17591 ft | 394 kts | 92° |
| 2026-05-07 22:16 | 41.80869 | -87.54153 | 18264 ft | 399 kts | 92° |
| 2026-05-07 22:17 | 41.80722 | -87.50420 | 18844 ft | 404 kts | 92° |
| 2026-05-07 22:17 | 41.80571 | -87.46634 | 19431 ft | 409 kts | 92° |
| 2026-05-07 22:17 | 41.80416 | -87.42802 | 20021 ft | 414 kts | 92° |
| 2026-05-07 22:17 | 41.80259 | -87.38918 | 20598 ft | 419 kts | 92° |
| 2026-05-07 22:18 | 41.80099 | -87.35000 | 21186 ft | 424 kts | 92° |
| 2026-05-07 22:18 | 41.79769 | -87.27029 | 22335 ft | 433 kts | 92° |
| 2026-05-07 22:18 | 41.79600 | -87.22983 | 22891 ft | 438 kts | 92° |
| 2026-05-07 22:19 | 41.79427 | -87.18891 | 23450 ft | 442 kts | 92° |
| 2026-05-07 22:19 | 41.79251 | -87.14752 | 23906 ft | 447 kts | 92° |
| 2026-05-07 22:19 | 41.79072 | -87.10576 | 24323 ft | 452 kts | 92° |
| 2026-05-07 22:19 | 41.78889 | -87.06352 | 24732 ft | 457 kts | 92° |
| 2026-05-07 22:20 | 41.78702 | -87.02076 | 25147 ft | 462 kts | 93° |
| 2026-05-07 22:20 | 41.78512 | -86.97767 | 25544 ft | 467 kts | 93° |
| 2026-05-07 22:20 | 41.78318 | -86.93388 | 25940 ft | 472 kts | 93° |
| 2026-05-07 22:20 | 41.78120 | -86.88974 | 26314 ft | 477 kts | 93° |
| 2026-05-07 22:21 | 41.77918 | -86.84515 | 26686 ft | 482 kts | 93° |
| 2026-05-07 22:21 | 41.77713 | -86.80009 | 27056 ft | 487 kts | 93° |
| 2026-05-07 22:21 | 41.77503 | -86.75450 | 27422 ft | 492 kts | 94° |
| 2026-05-07 22:21 | 41.77290 | -86.70851 | 27779 ft | 497 kts | 94° |
| 2026-05-07 22:22 | 41.77072 | -86.66212 | 28131 ft | 502 kts | 94° |
| 2026-05-07 22:22 | 41.76889 | -86.62332 | 28410 ft | 506 kts | 94° |
| 2026-05-07 22:22 | 41.76664 | -86.57590 | 28768 ft | 511 kts | 94° |
| 2026-05-07 22:22 | 41.76435 | -86.52822 | 29091 ft | 516 kts | 94° |
| 2026-05-07 22:23 | 41.76202 | -86.47998 | 29421 ft | 520 kts | 94° |
| 2026-05-07 22:23 | 41.75961 | -86.43077 | 29739 ft | 525 kts | 95° |
| 2026-05-07 22:23 | 41.75720 | -86.38182 | 30043 ft | 529 kts | 95° |
| 2026-05-07 22:23 | 41.75480 | -86.33332 | 30321 ft | 533 kts | 95° |
| 2026-05-07 22:24 | 41.75226 | -86.28277 | 30644 ft | 535 kts | 95° |
| 2026-05-07 22:24 | 41.74975 | -86.23293 | 30974 ft | 537 kts | 95° |
| 2026-05-07 22:24 | 41.74720 | -86.18293 | 31283 ft | 539 kts | 95° |
| 2026-05-07 22:24 | 41.74466 | -86.13336 | 31542 ft | 542 kts | 95° |
| 2026-05-07 22:25 | 41.74201 | -86.08225 | 31821 ft | 545 kts | 95° |
| 2026-05-07 22:25 | 41.73935 | -86.03152 | 32094 ft | 547 kts | 95° |
| 2026-05-07 22:25 | 41.73667 | -85.98058 | 32359 ft | 549 kts | 95° |
| 2026-05-07 22:25 | 41.73396 | -85.92956 | 32640 ft | 551 kts | 95° |
| 2026-05-07 22:26 | 41.73122 | -85.87841 | 33018 ft | 550 kts | 96° |
| 2026-05-07 22:26 | 41.72847 | -85.82751 | 33431 ft | 548 kts | 96° |
| 2026-05-07 22:26 | 41.72570 | -85.77670 | 33807 ft | 547 kts | 96° |
| 2026-05-07 22:26 | 41.72292 | -85.72596 | 34087 ft | 548 kts | 96° |
| 2026-05-07 22:27 | 41.72010 | -85.67509 | 34351 ft | 547 kts | 96° |
| 2026-05-07 22:27 | 41.71726 | -85.62434 | 34674 ft | 546 kts | 96° |
| 2026-05-07 22:27 | 41.71442 | -85.57379 | 35002 ft | 544 kts | 96° |
| 2026-05-07 22:27 | 41.71156 | -85.52334 | 35290 ft | 543 kts | 96° |
| 2026-05-07 22:28 | 41.70868 | -85.47297 | 35554 ft | 543 kts | 96° |
| 2026-05-07 22:28 | 41.70578 | -85.42269 | 35831 ft | 542 kts | 97° |
| 2026-05-07 22:28 | 41.70286 | -85.37242 | 36121 ft | 541 kts | 97° |
| 2026-05-07 22:28 | 41.69993 | -85.32230 | 36390 ft | 540 kts | 97° |
| 2026-05-07 22:29 | 41.69694 | -85.27164 | 36670 ft | 540 kts | 97° |
| 2026-05-07 22:29 | 41.69397 | -85.22156 | 36946 ft | 539 kts | 97° |
| 2026-05-07 22:29 | 41.69097 | -85.17153 | 36960 ft | 543 kts | 97° |
| 2026-05-07 22:30 | 41.68486 | -85.07056 | 36961 ft | 544 kts | 97° |
| 2026-05-07 22:30 | 41.67872 | -84.97020 | 36947 ft | 538 kts | 98° |
| 2026-05-07 22:31 | 41.67253 | -84.87065 | 36962 ft | 537 kts | 98° |
| 2026-05-07 22:31 | 41.66629 | -84.77115 | 36965 ft | 537 kts | 97° |
| 2026-05-07 22:32 | 41.66158 | -84.67132 | 36969 ft | 538 kts | 96° |
| 2026-05-07 22:32 | 41.65770 | -84.57059 | 36974 ft | 539 kts | 96° |
| 2026-05-07 22:33 | 41.65429 | -84.48724 | 36965 ft | 541 kts | 96° |
| 2026-05-07 22:33 | 41.64987 | -84.38680 | 36976 ft | 542 kts | 96° |
| 2026-05-07 22:34 | 41.64525 | -84.28606 | 36959 ft | 544 kts | 96° |
| 2026-05-07 22:34 | 41.64055 | -84.18508 | 36962 ft | 545 kts | 96° |
| 2026-05-07 22:35 | 41.63573 | -84.08315 | 36957 ft | 547 kts | 97° |
| 2026-05-07 22:35 | 41.63085 | -83.98159 | 36959 ft | 548 kts | 97° |
| 2026-05-07 22:36 | 41.62586 | -83.87977 | 36958 ft | 550 kts | 97° |
| 2026-05-07 22:36 | 41.62077 | -83.77773 | 36957 ft | 551 kts | 97° |
| 2026-05-07 22:37 | 41.61559 | -83.67547 | 36959 ft | 552 kts | 97° |
| 2026-05-07 22:37 | 41.60633 | -83.57399 | 36947 ft | 545 kts | 111° |
| 2026-05-07 22:38 | 41.58482 | -83.47749 | 36963 ft | 542 kts | 114° |
| 2026-05-07 22:38 | 41.56210 | -83.38140 | 36961 ft | 543 kts | 114° |
| 2026-05-07 22:39 | 41.53991 | -83.28484 | 36967 ft | 545 kts | 113° |
| 2026-05-07 22:39 | 41.51803 | -83.18784 | 36963 ft | 546 kts | 113° |
| 2026-05-07 22:40 | 41.49610 | -83.09075 | 36966 ft | 547 kts | 113° |
| 2026-05-07 22:40 | 41.47398 | -82.99361 | 36957 ft | 548 kts | 114° |
| 2026-05-07 22:41 | 41.45169 | -82.89626 | 36956 ft | 549 kts | 114° |
| 2026-05-07 22:41 | 41.42930 | -82.79883 | 36951 ft | 550 kts | 114° |
| 2026-05-07 22:42 | 41.40680 | -82.70130 | 36953 ft | 551 kts | 114° |
| 2026-05-07 22:42 | 41.37756 | -82.60865 | 36963 ft | 533 kts | 131° |
| 2026-05-07 22:42 | 41.35733 | -82.56790 | 36963 ft | 522 kts | 139° |
| 2026-05-07 22:43 | 41.33395 | -82.53212 | 36975 ft | 506 kts | 148° |
| 2026-05-07 22:43 | 41.28417 | -82.46592 | 36959 ft | 507 kts | 148° |
| 2026-05-07 22:44 | 41.23424 | -82.39954 | 36979 ft | 508 kts | 148° |
| 2026-05-07 22:44 | 41.18449 | -82.33263 | 36965 ft | 510 kts | 148° |
| 2026-05-07 22:45 | 41.13474 | -82.26541 | 36969 ft | 511 kts | 148° |
| 2026-05-07 22:45 | 41.08491 | -82.19818 | 36959 ft | 511 kts | 148° |
| 2026-05-07 22:46 | 41.03496 | -82.13099 | 36966 ft | 512 kts | 148° |
| 2026-05-07 22:46 | 40.98500 | -82.06399 | 36955 ft | 512 kts | 148° |
| 2026-05-07 22:47 | 40.93497 | -81.99705 | 36978 ft | 511 kts | 148° |
| 2026-05-07 22:47 | 40.88488 | -81.93021 | 36963 ft | 512 kts | 149° |
| 2026-05-07 22:48 | 40.83473 | -81.86343 | 36970 ft | 512 kts | 149° |
| 2026-05-07 22:48 | 40.78442 | -81.79658 | 36962 ft | 513 kts | 149° |
| 2026-05-07 22:49 | 40.73415 | -81.72993 | 36965 ft | 513 kts | 149° |
| 2026-05-07 22:49 | 40.68381 | -81.66335 | 36951 ft | 513 kts | 149° |
| 2026-05-07 22:50 | 40.63341 | -81.59682 | 36958 ft | 513 kts | 149° |
| 2026-05-07 22:50 | 40.58300 | -81.53046 | 36957 ft | 512 kts | 149° |
| 2026-05-07 22:51 | 40.53260 | -81.46423 | 36976 ft | 513 kts | 149° |
| 2026-05-07 22:51 | 40.48211 | -81.39807 | 36955 ft | 513 kts | 149° |
| 2026-05-07 22:52 | 40.43152 | -81.33189 | 36970 ft | 513 kts | 149° |
| 2026-05-07 22:52 | 40.38087 | -81.26581 | 36960 ft | 513 kts | 150° |
| 2026-05-07 22:53 | 40.32988 | -81.19941 | 36957 ft | 513 kts | 150° |
| 2026-05-07 22:53 | 40.27955 | -81.13403 | 36944 ft | 514 kts | 150° |
| 2026-05-07 22:54 | 40.22834 | -81.06767 | 36945 ft | 515 kts | 150° |
| 2026-05-07 22:54 | 40.17728 | -81.00164 | 36927 ft | 517 kts | 150° |
| 2026-05-07 22:55 | 40.12615 | -80.93562 | 36929 ft | 517 kts | 150° |
| 2026-05-07 22:55 | 40.07491 | -80.86962 | 36922 ft | 518 kts | 150° |
| 2026-05-07 22:56 | 40.02354 | -80.80354 | 36928 ft | 520 kts | 149° |
| 2026-05-07 22:56 | 39.97291 | -80.73542 | 36921 ft | 524 kts | 148° |
| 2026-05-07 22:57 | 39.92270 | -80.66635 | 36924 ft | 525 kts | 148° |
| 2026-05-07 22:57 | 39.87235 | -80.59759 | 36917 ft | 524 kts | 148° |
| 2026-05-07 22:58 | 39.82185 | -80.52924 | 36929 ft | 523 kts | 148° |
| 2026-05-07 22:58 | 39.77132 | -80.46121 | 36913 ft | 523 kts | 148° |
| 2026-05-07 22:59 | 39.72085 | -80.39333 | 36921 ft | 522 kts | 148° |
| 2026-05-07 22:59 | 39.67007 | -80.32517 | 36920 ft | 522 kts | 148° |
| 2026-05-07 22:59 | 39.64473 | -80.29125 | 36638 ft | 526 kts | 148° |
| 2026-05-07 23:00 | 39.61961 | -80.25771 | 36170 ft | 525 kts | 148° |
| 2026-05-07 23:00 | 39.59424 | -80.22372 | 35697 ft | 523 kts | 148° |
| 2026-05-07 23:00 | 39.56909 | -80.19002 | 35310 ft | 518 kts | 148° |
| 2026-05-07 23:00 | 39.54409 | -80.15655 | 34924 ft | 514 kts | 149° |
| 2026-05-07 23:01 | 39.51932 | -80.12348 | 34536 ft | 510 kts | 149° |
| 2026-05-07 23:01 | 39.49472 | -80.09072 | 34161 ft | 506 kts | 149° |
| 2026-05-07 23:01 | 39.47022 | -80.05817 | 33739 ft | 502 kts | 146° |
| 2026-05-07 23:01 | 39.44587 | -80.02586 | 33277 ft | 500 kts | 149° |
| 2026-05-07 23:02 | 39.42144 | -79.99345 | 32919 ft | 495 kts | 149° |
| 2026-05-07 23:02 | 39.39748 | -79.96171 | 32531 ft | 491 kts | 149° |
| 2026-05-07 23:02 | 39.37371 | -79.93025 | 32166 ft | 487 kts | 148° |
| 2026-05-07 23:02 | 39.35016 | -79.89909 | 31787 ft | 483 kts | 148° |
| 2026-05-07 23:03 | 39.32680 | -79.86822 | 31415 ft | 479 kts | 149° |
| 2026-05-07 23:03 | 39.30533 | -79.83457 | 31000 ft | 499 kts | 131° |
| 2026-05-07 23:03 | 39.29104 | -79.79288 | 30631 ft | 518 kts | 110° |
| 2026-05-07 23:03 | 39.28537 | -79.74673 | 30237 ft | 522 kts | 98° |
| 2026-05-07 23:04 | 39.28242 | -79.70000 | 29692 ft | 523 kts | 97° |
| 2026-05-07 23:04 | 39.27985 | -79.65326 | 29216 ft | 520 kts | 97° |
| 2026-05-07 23:04 | 39.27677 | -79.60695 | 28761 ft | 516 kts | 98° |
| 2026-05-07 23:04 | 39.27315 | -79.56104 | 28306 ft | 512 kts | 99° |
| 2026-05-07 23:05 | 39.26934 | -79.51549 | 27862 ft | 509 kts | 99° |
| 2026-05-07 23:05 | 39.26558 | -79.47027 | 27417 ft | 506 kts | 99° |
| 2026-05-07 23:05 | 39.26188 | -79.42523 | 26998 ft | 503 kts | 99° |
| 2026-05-07 23:05 | 39.25817 | -79.37993 | 26560 ft | 500 kts | 99° |
| 2026-05-07 23:06 | 39.25452 | -79.33537 | 26116 ft | 497 kts | 99° |
| 2026-05-07 23:06 | 39.25093 | -79.29178 | 25705 ft | 494 kts | 99° |
| 2026-05-07 23:06 | 39.24729 | -79.24784 | 25305 ft | 491 kts | 99° |
| 2026-05-07 23:06 | 39.24359 | -79.20362 | 24870 ft | 488 kts | 100° |
| 2026-05-07 23:07 | 39.23996 | -79.16079 | 24445 ft | 485 kts | 100° |
| 2026-05-07 23:07 | 39.23747 | -79.13159 | 24167 ft | 484 kts | 100° |
| 2026-05-07 23:07 | 39.23380 | -79.08870 | 23735 ft | 480 kts | 99° |
| 2026-05-07 23:07 | 39.23015 | -79.04614 | 23311 ft | 476 kts | 100° |
| 2026-05-07 23:08 | 39.22531 | -78.99007 | 22710 ft | 472 kts | 100° |
| 2026-05-07 23:08 | 39.22286 | -78.96179 | 22381 ft | 470 kts | 100° |
| 2026-05-07 23:08 | 39.21905 | -78.92022 | 22024 ft | 463 kts | 100° |
| 2026-05-07 23:08 | 39.21507 | -78.87921 | 21624 ft | 460 kts | 100° |
| 2026-05-07 23:09 | 39.21102 | -78.83841 | 21211 ft | 456 kts | 100° |
| 2026-05-07 23:09 | 39.20705 | -78.79799 | 20835 ft | 453 kts | 100° |
| 2026-05-07 23:09 | 39.20312 | -78.75784 | 20440 ft | 450 kts | 99° |
| 2026-05-07 23:09 | 39.19922 | -78.71791 | 20059 ft | 447 kts | 99° |
| 2026-05-07 23:10 | 39.19534 | -78.67829 | 19669 ft | 444 kts | 99° |
| 2026-05-07 23:10 | 39.19147 | -78.63902 | 19283 ft | 439 kts | 99° |
| 2026-05-07 23:10 | 39.18762 | -78.60015 | 18928 ft | 436 kts | 99° |
| 2026-05-07 23:10 | 39.18375 | -78.56109 | 18518 ft | 433 kts | 99° |
| 2026-05-07 23:11 | 39.17994 | -78.52278 | 18157 ft | 429 kts | 98° |
| 2026-05-07 23:11 | 39.17615 | -78.48477 | 17741 ft | 425 kts | 99° |
| 2026-05-07 23:11 | 39.17239 | -78.44718 | 17360 ft | 421 kts | 99° |
| 2026-05-07 23:11 | 39.16867 | -78.40998 | 16991 ft | 417 kts | 99° |
| 2026-05-07 23:12 | 39.16492 | -78.37318 | 16630 ft | 412 kts | 100° |
| 2026-05-07 23:12 | 39.15889 | -78.33736 | 16261 ft | 406 kts | 110° |
| 2026-05-07 23:12 | 39.15033 | -78.30307 | 15952 ft | 398 kts | 112° |
| 2026-05-07 23:12 | 39.14134 | -78.26974 | 15679 ft | 392 kts | 113° |
| 2026-05-07 23:13 | 39.13251 | -78.23665 | 15350 ft | 388 kts | 112° |
| 2026-05-07 23:13 | 39.12403 | -78.20388 | 15017 ft | 384 kts | 112° |
| 2026-05-07 23:13 | 39.11585 | -78.17140 | 14711 ft | 380 kts | 111° |
| 2026-05-07 23:13 | 39.10781 | -78.13914 | 14387 ft | 377 kts | 111° |
| 2026-05-07 23:14 | 39.09985 | -78.10723 | 14058 ft | 373 kts | 112° |
| 2026-05-07 23:14 | 39.09183 | -78.07558 | 13739 ft | 370 kts | 112° |
| 2026-05-07 23:14 | 39.08384 | -78.04433 | 13402 ft | 366 kts | 112° |
| 2026-05-07 23:14 | 39.07592 | -78.01341 | 13064 ft | 362 kts | 112° |
| 2026-05-07 23:15 | 39.06806 | -77.98270 | 12737 ft | 358 kts | 112° |
| 2026-05-07 23:15 | 39.06030 | -77.95240 | 12425 ft | 355 kts | 112° |
| 2026-05-07 23:15 | 39.05261 | -77.92242 | 12133 ft | 351 kts | 112° |
| 2026-05-07 23:15 | 39.04500 | -77.89277 | 11829 ft | 347 kts | 112° |
| 2026-05-07 23:16 | 39.03748 | -77.86353 | 11530 ft | 342 kts | 112° |
| 2026-05-07 23:16 | 39.03003 | -77.83458 | 11256 ft | 339 kts | 112° |
| 2026-05-07 23:16 | 39.02267 | -77.80598 | 10969 ft | 336 kts | 112° |
| 2026-05-07 23:16 | 39.01534 | -77.77761 | 10685 ft | 333 kts | 111° |
| 2026-05-07 23:17 | 39.00810 | -77.74955 | 10398 ft | 330 kts | 111° |
| 2026-05-07 23:17 | 39.00089 | -77.72168 | 10120 ft | 327 kts | 111° |
| 2026-05-07 23:17 | 38.99377 | -77.69417 | 9931 ft | 320 kts | 111° |
| 2026-05-07 23:17 | 38.98684 | -77.66739 | 9673 ft | 317 kts | 111° |
| 2026-05-07 23:18 | 38.97968 | -77.64057 | 9297 ft | 316 kts | 113° |
| 2026-05-07 23:18 | 38.97191 | -77.61425 | 8985 ft | 314 kts | 114° |
| 2026-05-07 23:18 | 38.96410 | -77.58824 | 8697 ft | 311 kts | 114° |
| 2026-05-07 23:18 | 38.95635 | -77.56230 | 8423 ft | 308 kts | 114° |
| 2026-05-07 23:19 | 38.94885 | -77.53634 | 8147 ft | 306 kts | 108° |
| 2026-05-07 23:19 | 38.94718 | -77.50921 | 7843 ft | 306 kts | 82° |
| 2026-05-07 23:19 | 38.95348 | -77.48334 | 7537 ft | 303 kts | 65° |
| 2026-05-07 23:19 | 38.96189 | -77.45856 | 7208 ft | 303 kts | 64° |
| 2026-05-07 23:20 | 38.97045 | -77.43387 | 6867 ft | 303 kts | 64° |
| 2026-05-07 23:20 | 38.97894 | -77.40908 | 6541 ft | 303 kts | 64° |
| 2026-05-07 23:20 | 38.98735 | -77.38416 | 6189 ft | 304 kts | 65° |
| 2026-05-07 23:20 | 38.99568 | -77.35926 | 5840 ft | 303 kts | 65° |
| 2026-05-07 23:21 | 39.00399 | -77.33432 | 5486 ft | 303 kts | 65° |
| 2026-05-07 23:21 | 39.01228 | -77.30957 | 5133 ft | 302 kts | 65° |
| 2026-05-07 23:21 | 39.02064 | -77.28471 | 4796 ft | 301 kts | 65° |
| 2026-05-07 23:21 | 39.02635 | -77.25892 | 4421 ft | 301 kts | 86° |
| 2026-05-07 23:22 | 39.02313 | -77.23372 | 4411 ft | 275 kts | 112° |
| 2026-05-07 23:22 | 39.01393 | -77.21364 | 4270 ft | 251 kts | 134° |
| 2026-05-07 23:22 | 39.00207 | -77.19847 | 4157 ft | 231 kts | 139° |
| 2026-05-07 23:22 | 38.99073 | -77.18484 | 4010 ft | 215 kts | 140° |
| 2026-05-07 23:23 | 38.98063 | -77.17123 | 3758 ft | 209 kts | 130° |
| 2026-05-07 23:23 | 38.97198 | -77.15646 | 3464 ft | 206 kts | 129° |
| 2026-05-07 23:23 | 38.96353 | -77.14175 | 3116 ft | 203 kts | 136° |
| 2026-05-07 23:23 | 38.95192 | -77.13229 | 2740 ft | 198 kts | 158° |
| 2026-05-07 23:24 | 38.93971 | -77.12428 | 2397 ft | 195 kts | 155° |
| 2026-05-07 23:24 | 38.92932 | -77.11714 | 2135 ft | 190 kts | 156° |
| 2026-05-07 23:24 | 38.91790 | -77.10919 | 1942 ft | 180 kts | 153° |
| 2026-05-07 23:24 | 38.90865 | -77.09931 | 1764 ft | 169 kts | 134° |
| 2026-05-07 23:25 | 38.90153 | -77.08715 | 1334 ft | 168 kts | 130° |
| 2026-05-07 23:25 | 38.89473 | -77.07594 | 1130 ft | 146 kts | 136° |
| 2026-05-07 23:25 | 38.88755 | -77.06798 | 898 ft | 131 kts | 146° |
| 2026-05-07 23:25 | 38.88036 | -77.06121 | 662 ft | 125 kts | 148° |
| 2026-05-07 23:26 | 38.87349 | -77.05481 | 431 ft | 121 kts | 147° |
| 2026-05-07 23:26 | 38.86662 | -77.04841 | 238 ft | 123 kts | 146° |
| 2026-05-07 23:26 | 38.85973 | -77.04184 | 37 ft | 124 kts | 146° |
| 2026-05-07 23:26 | 38.85336 | -77.03570 | 25 ft | 95 kts | 143° |
| 2026-05-07 23:27 | 38.84972 | -77.03284 | 24 ft | 16 kts | 215° |
| 2026-05-07 23:27 | 38.84965 | -77.03400 | 23 ft | 9 kts | 281° |
| 2026-05-07 23:27 | 38.84970 | -77.03456 | 23 ft | 8 kts | 265° |
| 2026-05-07 23:28 | 38.84944 | -77.03539 | 26 ft | 12 kts | 244° |
| 2026-05-07 23:28 | 38.84904 | -77.03646 | 28 ft | 15 kts | 244° |
| 2026-05-07 23:28 | 38.84881 | -77.03797 | 22 ft | 20 kts | 270° |
| 2026-05-07 23:28 | 38.84854 | -77.03879 | 25 ft | 8 kts | 200° |
| 2026-05-07 23:29 | 38.84785 | -77.03882 | 23 ft | 11 kts | 180° |
| 2026-05-07 23:29 | 38.84705 | -77.03925 | 24 ft | 14 kts | 205° |
| 2026-05-07 23:29 | 38.84608 | -77.03984 | 23 ft | 13 kts | 209° |
| 2026-05-07 23:29 | 38.84543 | -77.04085 | 25 ft | 16 kts | 260° |
| 2026-05-07 23:30 | 38.84558 | -77.04140 | 27 ft | 0 kts | 314° |
| 2026-05-07 23:30 | 38.84564 | -77.04146 | 25 ft | 3 kts | 319° |
| 2026-05-07 23:30 | 38.84599 | -77.04172 | 26 ft | 8 kts | 333° |
| 2026-05-07 23:30 | 38.84644 | -77.04201 | 26 ft | 1 kts | 333° |
| 2026-05-07 23:31 | 38.84646 | -77.04202 | 25 ft | 1 kts | 333° |
| 2026-05-07 23:31 | 38.84646 | -77.04203 | 25 ft | 0 kts | 333° |